createdAt,value
2018-05-23T00:01:50.326Z,11.90
2018-05-23T00:04:20.772Z,11.90
2018-05-23T00:06:50.252Z,12.20
2018-05-23T00:09:20.587Z,12.80
2018-05-23T00:11:50.011Z,11.30
2018-05-23T00:14:19.563Z,11.60
2018-05-23T00:16:49.062Z,11.80
2018-05-23T00:19:18.396Z,13.10
2018-05-23T00:21:47.708Z,12.20
2018-05-23T00:24:17.618Z,13.00
2018-05-23T00:26:47.349Z,11.30
2018-05-23T00:29:18.255Z,9.90
2018-05-23T00:31:47.663Z,9.80
2018-05-23T00:34:17.093Z,9.90
2018-05-23T00:36:46.162Z,10.70
2018-05-23T00:39:15.651Z,10.10
2018-05-23T00:41:46.189Z,10.10
2018-05-23T00:44:15.437Z,9.90
2018-05-23T00:46:46.967Z,9.30
2018-05-23T00:49:16.163Z,9.20
2018-05-23T00:51:47.084Z,9.60
2018-05-23T00:54:16.370Z,9.90
2018-05-23T00:56:47.563Z,10.50
2018-05-23T00:59:16.852Z,10.30
2018-05-23T01:01:46.582Z,9.30
2018-05-23T01:04:16.705Z,10.40
2018-05-23T01:06:46.042Z,9.20
2018-05-23T01:09:17.221Z,8.30
2018-05-23T01:11:47.565Z,8.80
2018-05-23T01:14:17.124Z,8.30
2018-05-23T01:16:46.584Z,8.50
2018-05-23T01:19:15.647Z,8.80
2018-05-23T01:21:47.127Z,9.80
2018-05-23T01:24:16.941Z,8.80
2018-05-23T01:26:46.598Z,9.90
2018-05-23T01:29:16.550Z,9.10
2018-05-23T01:31:45.840Z,9.70
2018-05-23T01:34:16.924Z,9.20
2018-05-23T01:36:46.273Z,8.50
2018-05-23T01:39:15.546Z,9.10
2018-05-23T01:41:46.524Z,9.50
2018-05-23T01:44:15.719Z,8.80
2018-05-23T01:46:45.677Z,8.60
2018-05-23T01:49:30.719Z,8.50
2018-05-23T01:52:00.083Z,9.10
2018-05-23T01:54:30.254Z,9.70
2018-05-23T01:56:59.693Z,9.70
2018-05-23T01:59:29.003Z,10.20
2018-05-23T02:01:58.909Z,9.60
2018-05-23T02:04:30.833Z,9.60
2018-05-23T02:07:04.663Z,10.30
2018-05-23T02:14:51.657Z,11.20
2018-05-23T02:17:24.931Z,11.70
2018-05-23T02:19:56.436Z,11.60
2018-05-23T02:22:33.000Z,12.40
2018-05-23T02:25:05.693Z,13.50
2018-05-23T02:27:34.978Z,13.50
2018-05-23T02:30:04.192Z,14.20
2018-05-23T02:32:33.470Z,14.20
2018-05-23T02:35:02.767Z,14.50
2018-05-23T02:37:31.909Z,15.30
2018-05-23T02:40:02.630Z,16.70
2018-05-23T02:42:32.148Z,16.60
2018-05-23T02:45:01.216Z,16.50
2018-05-23T02:47:30.575Z,16.90
2018-05-23T02:50:00.020Z,17.10
2018-05-23T02:52:29.518Z,17.50
2018-05-23T02:54:58.640Z,17.50
2018-05-23T02:57:27.916Z,18.20
2018-05-23T02:59:57.244Z,18.30
2018-05-23T03:02:26.021Z,18.20
2018-05-23T03:04:55.026Z,19.20
2018-05-23T03:07:23.917Z,19.00
2018-05-23T03:09:52.690Z,19.30
2018-05-23T03:12:21.750Z,19.80
2018-05-23T03:14:52.176Z,19.10
2018-05-23T03:17:22.764Z,19.60
2018-05-23T03:19:54.051Z,19.60
2018-05-23T03:22:24.410Z,20.00
2018-05-23T03:25:01.621Z,21.40
2018-05-23T03:27:34.888Z,20.30
2018-05-23T03:30:06.365Z,20.60
2018-05-23T03:37:52.464Z,20.90
2018-05-23T03:40:30.287Z,21.50
2018-05-23T03:45:35.048Z,21.80
2018-05-23T03:48:04.314Z,21.90
2018-05-23T03:50:33.625Z,22.00
2018-05-23T03:53:02.381Z,22.50
2018-05-23T03:55:31.580Z,23.00
2018-05-23T03:58:00.897Z,23.20
2018-05-23T04:00:52.541Z,23.00
2018-05-23T04:03:33.182Z,23.40
2018-05-23T04:06:13.732Z,24.00
2018-05-23T04:08:43.072Z,24.00
2018-05-23T04:11:12.866Z,24.00
2018-05-23T04:13:42.461Z,24.30
2018-05-23T04:16:11.286Z,24.20
2018-05-23T04:18:41.158Z,24.50
2018-05-23T04:21:10.650Z,24.50
2018-05-23T04:23:42.009Z,24.30
2018-05-23T04:26:11.809Z,24.90
2018-05-23T04:28:41.066Z,24.90
2018-05-23T04:31:10.184Z,24.90
2018-05-23T04:33:39.229Z,24.90
2018-05-23T04:36:09.141Z,24.90
2018-05-23T04:38:38.661Z,25.30
2018-05-23T04:41:07.941Z,25.10
2018-05-23T04:43:37.850Z,25.90
2018-05-23T04:46:07.138Z,26.00
2018-05-23T04:48:36.687Z,25.60
2018-05-23T04:51:05.721Z,25.90
2018-05-23T04:53:35.637Z,26.10
2018-05-23T04:56:05.231Z,26.10
2018-05-23T04:58:34.734Z,26.30
2018-05-23T05:01:05.912Z,26.50
2018-05-23T05:03:34.656Z,26.50
2018-05-23T05:06:03.904Z,27.00
2018-05-23T05:08:33.391Z,27.00
2018-05-23T05:11:02.885Z,26.90
2018-05-23T05:13:32.003Z,27.30
2018-05-23T05:16:02.089Z,28.00
2018-05-23T05:18:31.605Z,28.00
2018-05-23T05:21:00.933Z,27.90
2018-05-23T05:23:30.218Z,28.40
2018-05-23T05:25:59.290Z,28.80
2018-05-23T05:28:28.607Z,28.70
2018-05-23T05:30:57.916Z,29.20
2018-05-23T05:33:27.626Z,29.40
2018-05-23T05:35:56.880Z,29.30
2018-05-23T05:38:26.004Z,29.70
2018-05-23T05:40:55.141Z,29.70
2018-05-23T05:43:24.170Z,30.00
2018-05-23T05:45:53.724Z,30.50
2018-05-23T05:48:22.996Z,30.30
2018-05-23T05:50:52.453Z,30.30
2018-05-23T05:53:22.449Z,30.70
2018-05-23T05:55:51.692Z,30.50
2018-05-23T05:58:20.966Z,31.50
2018-05-23T06:00:50.417Z,31.40
2018-05-23T06:03:22.565Z,31.60
2018-05-23T06:05:52.074Z,31.50
2018-05-23T06:08:21.433Z,31.70
2018-05-23T06:10:50.664Z,31.90
2018-05-23T06:13:19.752Z,32.90
2018-05-23T06:15:49.253Z,33.00
2018-05-23T06:18:18.576Z,33.20
2018-05-23T06:20:47.681Z,32.50
2018-05-23T06:23:17.246Z,33.70
2018-05-23T06:25:46.262Z,33.20
2018-05-23T06:28:15.442Z,33.30
2018-05-23T06:30:45.028Z,32.80
2018-05-23T06:33:14.262Z,32.90
2018-05-23T06:35:43.784Z,32.80
2018-05-23T06:38:13.356Z,33.70
2018-05-23T06:40:42.881Z,33.60
2018-05-23T06:43:12.010Z,33.50
2018-05-23T06:45:41.484Z,35.30
2018-05-23T06:48:10.977Z,34.40
2018-05-23T06:50:40.308Z,35.90
2018-05-23T06:53:11.057Z,37.00
2018-05-23T06:55:40.098Z,37.00
2018-05-23T06:58:09.228Z,36.70
2018-05-23T07:00:38.506Z,37.20
2018-05-23T07:03:07.986Z,36.40
2018-05-23T07:05:37.612Z,37.30
2018-05-23T07:08:06.808Z,36.80
2018-05-23T07:10:36.303Z,37.80
2018-05-23T07:13:05.565Z,37.40
2018-05-23T07:15:35.221Z,37.30
2018-05-23T07:18:05.243Z,37.90
2018-05-23T07:20:35.097Z,38.00
2018-05-23T07:23:04.549Z,38.00
2018-05-23T07:25:33.850Z,37.80
2018-05-23T07:28:03.281Z,37.60
2018-05-23T07:30:33.486Z,38.60
2018-05-23T07:33:02.590Z,38.50
2018-05-23T07:35:32.099Z,38.80
2018-05-23T07:38:02.194Z,38.20
2018-05-23T07:40:31.744Z,38.20
2018-05-23T07:43:00.992Z,40.20
2018-05-23T07:45:30.276Z,39.60
2018-05-23T07:47:59.564Z,39.20
2018-05-23T07:50:28.899Z,40.30
2018-05-23T07:52:58.229Z,38.60
2018-05-23T07:55:27.287Z,39.40
2018-05-23T07:57:56.782Z,39.50
2018-05-23T08:00:26.273Z,39.10
2018-05-23T08:02:55.402Z,39.30
2018-05-23T08:05:25.701Z,39.90
2018-05-23T08:07:55.297Z,39.60
2018-05-23T08:10:24.519Z,39.90
2018-05-23T08:12:53.827Z,40.00
2018-05-23T08:15:23.102Z,39.80
2018-05-23T08:17:52.616Z,39.80
2018-05-23T08:20:21.916Z,39.90
2018-05-23T08:22:52.073Z,41.00
2018-05-23T08:25:21.776Z,40.80
2018-05-23T08:27:51.076Z,40.40
2018-05-23T08:30:20.147Z,40.80
2018-05-23T08:32:49.449Z,41.90
2018-05-23T08:35:18.762Z,41.90
2018-05-23T08:37:49.657Z,42.00
2018-05-23T08:40:19.176Z,41.90
2018-05-23T08:42:48.707Z,42.60
2018-05-23T08:45:17.770Z,41.70
2018-05-23T08:47:47.776Z,43.00
2018-05-23T08:50:17.037Z,42.90
2018-05-23T08:52:47.185Z,42.40
2018-05-23T08:55:16.473Z,42.30
2018-05-23T08:57:45.859Z,42.40
2018-05-23T09:00:15.135Z,43.00
2018-05-23T09:02:45.149Z,43.30
2018-05-23T09:05:14.423Z,42.50
2018-05-23T09:07:43.724Z,43.30
2018-05-23T09:10:13.454Z,43.90
2018-05-23T09:12:43.669Z,44.10
2018-05-23T09:15:12.953Z,43.50
2018-05-23T09:17:42.458Z,43.60
2018-05-23T09:20:11.581Z,44.70
2018-05-23T09:22:41.056Z,45.50
2018-05-23T09:25:10.372Z,45.70
2018-05-23T09:27:39.656Z,45.30
2018-05-23T09:30:08.828Z,45.50
2018-05-23T09:32:37.830Z,45.60
2018-05-23T09:35:06.947Z,46.30
2018-05-23T09:37:36.025Z,46.20
2018-05-23T09:40:05.980Z,45.80
2018-05-23T09:42:35.074Z,45.60
2018-05-23T09:45:04.348Z,47.20
2018-05-23T09:47:33.504Z,47.10
2018-05-23T09:50:02.654Z,48.10
2018-05-23T09:52:31.961Z,48.00
2018-05-23T09:55:01.453Z,48.50
2018-05-23T09:57:31.566Z,45.90
2018-05-23T10:00:00.662Z,45.80
2018-05-23T10:02:29.921Z,48.30
2018-05-23T10:04:59.254Z,48.20
2018-05-23T10:07:29.745Z,46.90
2018-05-23T10:09:58.848Z,48.50
2018-05-23T10:12:28.367Z,48.10
2018-05-23T10:14:57.764Z,47.90
2018-05-23T10:17:27.066Z,47.70
2018-05-23T10:19:56.586Z,47.50
2018-05-23T10:22:25.920Z,46.90
2018-05-23T10:24:55.163Z,46.60
2018-05-23T10:27:24.689Z,47.30
2018-05-23T10:29:53.960Z,46.70
2018-05-23T10:32:23.285Z,46.60
2018-05-23T10:34:52.573Z,45.00
2018-05-23T10:37:21.687Z,44.90
2018-05-23T10:39:51.172Z,44.70
2018-05-23T10:42:20.511Z,44.70
2018-05-23T10:44:49.778Z,44.70
2018-05-23T10:47:18.866Z,45.10
2018-05-23T10:49:48.202Z,45.20
2018-05-23T10:52:17.444Z,44.80
2018-05-23T10:54:46.572Z,44.70
2018-05-23T10:57:16.064Z,46.40
2018-05-23T10:59:45.469Z,46.00
2018-05-23T11:02:14.853Z,47.00
2018-05-23T11:04:43.921Z,47.40
2018-05-23T11:07:13.177Z,47.40
2018-05-23T11:09:42.279Z,48.00
2018-05-23T11:12:11.546Z,48.50
2018-05-23T11:14:41.451Z,47.80
2018-05-23T11:17:10.770Z,48.00
2018-05-23T11:19:40.274Z,48.70
2018-05-23T11:22:09.555Z,48.60
2018-05-23T11:24:38.850Z,48.50
2018-05-23T11:27:08.277Z,49.70
2018-05-23T11:29:37.772Z,50.00
2018-05-23T11:32:06.868Z,50.70
2018-05-23T11:34:35.993Z,50.30
2018-05-23T11:37:05.268Z,50.70
2018-05-23T11:39:35.213Z,51.20
2018-05-23T11:42:05.735Z,53.10
2018-05-23T11:44:34.978Z,53.00
2018-05-23T11:47:04.728Z,52.50
2018-05-23T11:49:34.043Z,53.20
2018-05-23T11:52:04.134Z,54.00
2018-05-23T11:54:33.459Z,54.00
2018-05-23T11:57:03.749Z,54.10
2018-05-23T11:59:33.057Z,54.10
2018-05-23T12:02:02.078Z,54.00
2018-05-23T12:04:31.357Z,54.60
2018-05-23T12:07:00.638Z,54.90
2018-05-23T12:09:30.363Z,54.80
2018-05-23T12:12:00.097Z,54.80
2018-05-23T12:14:29.561Z,55.30
2018-05-23T12:17:00.169Z,56.30
2018-05-23T12:19:31.251Z,56.30
2018-05-23T12:22:00.664Z,55.70
2018-05-23T12:24:29.728Z,55.70
2018-05-23T12:26:59.074Z,56.60
2018-05-23T12:29:28.332Z,57.60
2018-05-23T12:31:57.866Z,57.50
2018-05-23T12:34:27.361Z,57.40
2018-05-23T12:36:56.605Z,57.40
2018-05-23T12:39:26.344Z,57.90
2018-05-23T12:41:55.904Z,57.80
2018-05-23T12:44:25.972Z,57.50
2018-05-23T12:46:55.288Z,57.50
2018-05-23T12:49:24.392Z,57.50
2018-05-23T12:51:53.695Z,58.40
2018-05-23T12:54:23.205Z,58.60
2018-05-23T12:56:52.819Z,58.30
2018-05-23T12:59:22.599Z,59.00
2018-05-23T13:01:52.142Z,59.30
2018-05-23T13:04:21.438Z,59.10
2018-05-23T13:06:50.996Z,59.40
2018-05-23T13:09:20.613Z,59.50
2018-05-23T13:11:51.372Z,60.00
2018-05-23T13:14:20.619Z,59.60
2018-05-23T13:16:49.832Z,60.30
2018-05-23T13:19:19.898Z,59.40
2018-05-23T13:21:49.970Z,58.80
2018-05-23T13:24:19.520Z,58.70
2018-05-23T13:26:48.781Z,60.40
2018-05-23T13:29:18.086Z,60.90
2018-05-23T13:31:47.331Z,56.90
2018-05-23T13:34:17.517Z,58.40
2018-05-23T13:36:47.217Z,58.40
2018-05-23T13:39:16.303Z,57.70
2018-05-23T13:41:45.254Z,55.40
2018-05-23T13:44:14.702Z,52.30
2018-05-23T13:46:44.221Z,51.10
2018-05-23T13:49:13.719Z,49.90
2018-05-23T13:51:42.930Z,50.80
2018-05-23T13:54:13.676Z,46.10
2018-05-23T13:56:43.148Z,46.30
2018-05-23T13:59:12.610Z,47.00
2018-05-23T14:01:41.842Z,45.50
2018-05-23T14:04:11.131Z,46.10
2018-05-23T14:06:41.593Z,45.80
2018-05-23T14:09:11.834Z,43.90
2018-05-23T14:11:41.959Z,41.90
2018-05-23T14:14:11.405Z,42.00
2018-05-23T14:16:40.700Z,41.20
2018-05-23T14:19:10.297Z,41.10
2018-05-23T14:21:39.598Z,40.50
2018-05-23T14:24:08.722Z,42.40
2018-05-23T14:26:38.323Z,42.90
2018-05-23T14:29:07.948Z,41.20
2018-05-23T14:31:37.420Z,39.80
2018-05-23T14:34:06.725Z,39.30
2018-05-23T14:36:35.925Z,38.10
2018-05-23T14:39:07.851Z,40.60
2018-05-23T14:41:37.176Z,37.40
2018-05-23T14:44:06.461Z,38.70
2018-05-23T14:46:35.593Z,40.60
2018-05-23T14:49:04.669Z,39.70
2018-05-23T14:51:33.933Z,36.80
2018-05-23T14:54:03.271Z,36.70
2018-05-23T14:56:32.394Z,36.50
2018-05-23T14:59:01.865Z,37.00
2018-05-23T15:01:31.202Z,35.80
2018-05-23T15:04:00.506Z,33.40
2018-05-23T15:06:29.558Z,34.50
2018-05-23T15:08:58.775Z,34.10
2018-05-23T15:11:28.159Z,34.40
2018-05-23T15:13:57.501Z,31.40
2018-05-23T15:16:26.620Z,33.00
2018-05-23T15:18:55.853Z,27.70
2018-05-23T15:21:25.155Z,27.40
2018-05-23T15:23:54.680Z,23.80
2018-05-23T15:26:23.938Z,25.70
2018-05-23T15:28:53.660Z,20.50
2018-05-23T15:31:22.881Z,20.50
2018-05-23T15:33:52.278Z,19.00
2018-05-23T15:36:22.305Z,17.60
2018-05-23T15:38:51.668Z,16.70
2018-05-23T15:41:21.378Z,16.40
2018-05-23T15:43:50.770Z,15.60
2018-05-23T15:46:19.911Z,16.10
2018-05-23T15:48:49.578Z,14.70
2018-05-23T15:51:25.438Z,12.10
2018-05-23T15:53:54.734Z,11.20
2018-05-23T15:56:24.010Z,10.20
2018-05-23T15:58:53.662Z,13.90
2018-05-23T16:01:23.054Z,13.20
2018-05-23T16:03:52.145Z,14.90
2018-05-23T16:06:21.405Z,13.20
2018-05-23T16:08:50.714Z,13.20
2018-05-23T16:11:20.051Z,12.70
2018-05-23T16:13:49.220Z,10.90
2018-05-23T16:16:19.452Z,8.50
2018-05-23T16:18:48.960Z,10.40
2018-05-23T16:21:18.256Z,10.00
2018-05-23T16:23:47.563Z,10.20
2018-05-23T16:26:17.096Z,6.20
2018-05-23T16:28:47.073Z,8.00
2018-05-23T16:31:16.168Z,8.10
2018-05-23T16:33:45.726Z,9.10
2018-05-23T16:36:14.998Z,8.70
2018-05-23T16:38:44.282Z,4.70
2018-05-23T16:41:13.606Z,4.80
2018-05-23T16:43:42.984Z,8.90
2018-05-23T16:46:12.173Z,7.40
2018-05-23T16:48:41.470Z,7.50
2018-05-23T16:51:10.679Z,9.50
2018-05-23T16:53:39.791Z,8.00
2018-05-23T16:56:11.005Z,3.20
2018-05-23T16:58:40.306Z,3.30
2018-05-23T17:01:09.593Z,2.70
2018-05-23T17:03:38.894Z,3.00
2018-05-23T17:06:08.014Z,8.40
2018-05-23T17:08:37.285Z,6.80
2018-05-23T17:11:06.784Z,6.80
2018-05-23T17:13:36.341Z,6.40
2018-05-23T17:16:05.706Z,6.40
2018-05-23T17:18:35.226Z,7.40
2018-05-23T17:21:04.400Z,7.90
2018-05-23T17:23:33.606Z,8.20
2018-05-23T17:26:02.945Z,8.50
2018-05-23T17:28:32.666Z,9.40
2018-05-23T17:31:02.978Z,11.60
2018-05-23T17:33:32.297Z,11.60
2018-05-23T17:36:02.264Z,7.80
2018-05-23T17:38:31.903Z,7.90
2018-05-23T17:41:01.894Z,6.90
2018-05-23T17:43:31.039Z,6.80
2018-05-23T17:46:00.472Z,6.20
2018-05-23T17:48:29.995Z,8.40
2018-05-23T17:53:34.057Z,3.60
2018-05-23T17:56:03.758Z,5.70
2018-05-23T17:58:33.261Z,7.80
2018-05-23T18:01:02.736Z,9.00
2018-05-23T18:03:32.368Z,7.90
2018-05-23T18:06:01.817Z,9.00
2018-05-23T18:08:31.390Z,13.60
2018-05-23T18:11:00.666Z,10.20
2018-05-23T18:13:29.761Z,9.00
2018-05-23T18:15:59.161Z,9.20
2018-05-23T18:18:28.708Z,9.20
2018-05-23T18:21:03.319Z,10.30
2018-05-23T18:23:32.672Z,10.00
2018-05-23T18:26:01.934Z,11.90
2018-05-23T18:28:31.418Z,9.50
2018-05-23T18:31:01.199Z,10.20
2018-05-23T18:33:30.699Z,10.10
2018-05-23T18:36:00.002Z,10.40
2018-05-23T18:38:29.519Z,12.90
2018-05-23T18:40:58.770Z,7.50
2018-05-23T18:43:28.111Z,7.60
2018-05-23T18:46:00.038Z,8.40
2018-05-23T18:48:29.154Z,8.60
2018-05-23T18:50:58.241Z,8.40
2018-05-23T18:53:27.613Z,8.70
2018-05-23T18:55:56.860Z,8.50
2018-05-23T18:58:26.384Z,8.00
2018-05-23T19:00:55.701Z,7.90
2018-05-23T19:03:25.454Z,9.20
2018-05-23T19:05:55.180Z,9.20
2018-05-23T19:08:24.690Z,13.70
2018-05-23T19:10:53.787Z,12.00
2018-05-23T19:13:22.966Z,11.30
2018-05-23T19:15:52.488Z,10.70
2018-05-23T19:18:23.020Z,8.80
2018-05-23T19:20:52.938Z,8.90
2018-05-23T19:23:22.306Z,9.70
2018-05-23T19:25:51.522Z,10.20
2018-05-23T19:28:20.741Z,11.40
2018-05-23T19:30:50.270Z,7.80
2018-05-23T19:33:19.707Z,9.20
2018-05-23T19:35:49.000Z,12.00
2018-05-23T19:38:17.794Z,5.70
2018-05-23T19:40:46.998Z,8.10
2018-05-23T19:43:16.284Z,6.90
2018-05-23T19:45:52.791Z,7.40
2018-05-23T19:48:22.986Z,4.80
2018-05-23T19:50:52.333Z,4.80
2018-05-23T19:53:21.840Z,7.60
2018-05-23T19:55:51.081Z,6.20
2018-05-23T19:58:21.408Z,10.10
2018-05-23T20:00:52.226Z,11.00
2018-05-23T20:03:21.720Z,9.10
2018-05-23T20:05:52.207Z,11.50
2018-05-23T20:08:21.675Z,12.40
2018-05-23T20:10:50.878Z,16.10
2018-05-23T20:13:20.042Z,18.30
2018-05-23T20:15:49.810Z,13.70
2018-05-23T20:18:19.262Z,12.00
2018-05-23T20:20:49.066Z,14.30
2018-05-23T20:23:18.093Z,14.20
2018-05-23T20:25:47.219Z,16.20
2018-05-23T20:28:16.533Z,16.90
2018-05-23T20:30:45.901Z,17.20
2018-05-23T20:33:15.800Z,13.90
2018-05-23T20:35:44.785Z,14.30
2018-05-23T20:38:13.934Z,15.10
2018-05-23T20:40:43.998Z,16.70
2018-05-23T20:43:13.302Z,16.60
2018-05-23T20:45:42.589Z,15.50
2018-05-23T20:48:12.011Z,17.20
2018-05-23T20:50:41.497Z,17.00
2018-05-23T20:53:10.939Z,20.00
2018-05-23T20:55:40.009Z,17.40
2018-05-23T20:58:09.178Z,17.50
2018-05-23T21:00:38.522Z,20.70
2018-05-23T21:03:07.972Z,17.80
2018-05-23T21:05:37.362Z,16.70
2018-05-23T21:08:06.803Z,18.30
2018-05-23T21:10:35.874Z,18.60
2018-05-23T21:13:05.272Z,17.60
2018-05-23T21:15:34.694Z,17.90
2018-05-23T21:18:03.978Z,18.30
2018-05-23T21:20:33.896Z,19.90
2018-05-23T21:23:03.965Z,16.30
2018-05-23T21:25:32.983Z,16.30
2018-05-23T21:28:02.951Z,18.10
2018-05-23T21:30:32.237Z,18.10
2018-05-23T21:33:01.486Z,17.20
2018-05-23T21:35:31.150Z,16.50
2018-05-23T21:38:00.437Z,17.60
2018-05-23T21:40:29.726Z,17.70
2018-05-23T21:42:58.934Z,15.60
2018-05-23T21:45:28.057Z,15.40
2018-05-23T21:47:57.121Z,16.40
2018-05-23T21:50:26.458Z,16.90
2018-05-23T21:52:55.508Z,17.00
2018-05-23T21:55:24.621Z,15.60
2018-05-23T21:57:53.821Z,18.20
2018-05-23T22:00:22.960Z,18.10
2018-05-23T22:02:52.440Z,17.10
2018-05-23T22:05:23.101Z,18.50
2018-05-23T22:07:52.332Z,18.30
2018-05-23T22:10:22.485Z,14.90
2018-05-23T22:12:51.524Z,15.60
2018-05-23T22:15:21.016Z,17.80
2018-05-23T22:17:51.185Z,17.40
2018-05-23T22:20:20.267Z,17.40
2018-05-23T22:22:49.682Z,15.70
2018-05-23T22:25:18.902Z,16.10
2018-05-23T22:27:48.971Z,14.90
2018-05-23T22:30:18.554Z,14.90
2018-05-23T22:32:48.311Z,15.40
2018-05-23T22:35:17.865Z,15.50
2018-05-23T22:37:47.299Z,16.20
2018-05-23T22:40:17.265Z,17.60
2018-05-23T22:42:47.252Z,15.40
2018-05-23T22:45:16.402Z,15.40
2018-05-23T22:47:45.853Z,14.60
2018-05-23T22:50:15.186Z,15.60
2018-05-23T22:52:44.517Z,16.40
2018-05-23T22:55:13.707Z,16.60
2018-05-23T22:57:43.028Z,14.70
2018-05-23T23:00:27.733Z,16.50
2018-05-23T23:02:57.030Z,16.60
2018-05-23T23:05:26.317Z,15.40
2018-05-23T23:07:56.401Z,15.00
2018-05-23T23:10:25.551Z,14.60
2018-05-23T23:12:54.788Z,15.80
2018-05-23T23:15:24.112Z,14.70
2018-05-23T23:17:53.271Z,17.20
2018-05-23T23:20:23.488Z,16.60
2018-05-23T23:22:54.491Z,16.60
2018-05-23T23:25:24.455Z,16.90
2018-05-23T23:27:53.743Z,16.80
2018-05-23T23:30:22.961Z,17.50
2018-05-23T23:32:52.284Z,16.10
2018-05-23T23:35:21.809Z,15.10
2018-05-23T23:37:51.102Z,14.20
2018-05-23T23:40:20.280Z,13.90
2018-05-23T23:42:49.569Z,16.70
2018-05-23T23:45:19.040Z,14.50
2018-05-23T23:47:49.017Z,15.30
2018-05-23T23:50:18.274Z,15.20
2018-05-23T23:52:47.716Z,14.40
2018-05-23T23:55:17.098Z,14.20
2018-05-23T23:57:46.074Z,15.00
